Time;durP1;ratioP1;P1;durP2;ratioP2;P2;SDS_P1;SDS_P2;PMS_P1;PMS_P2;Temp;Humidity;BMP_temperature;BMP_pressure;BME280_temperature;BME280_humidity;BME280_pressure;Samples;Min_cycle;Max_cycle;Signal;HPM_P1;HPM_P2
2022/08/06 00:02:10;;;;;;;2.95;2.75;;;;;;;9.65;100.00;163087.03;5032076;28;20075;-58
2022/08/06 00:04:35;;;;;;;5.38;2.65;;;;;;;9.48;100.00;163043.91;5029104;28;20098;-58
2022/08/06 00:07:01;;;;;;;2.95;2.72;;;;;;;9.48;100.00;163043.91;5031896;28;20370;-58
2022/08/06 00:09:33;;;;;;;5.68;2.38;;;;;;;9.43;100.00;163030.38;5029686;28;20041;-58
2022/08/06 00:11:59;;;;;;;5.40;2.78;;;;;;;9.36;100.00;163011.50;5031720;28;20479;-58
2022/08/06 00:14:30;;;;;;;4.38;2.75;;;;;;;9.31;100.00;162998.03;5012381;28;20037;-58
2022/08/06 00:16:55;;;;;;;3.83;3.50;;;;;;;9.25;100.00;162981.84;5012274;28;20443;-59
2022/08/06 00:19:21;;;;;;;3.25;2.83;;;;;;;9.16;100.00;162960.28;5009753;28;20029;-58
2022/08/06 00:21:47;;;;;;;5.50;2.95;;;;;;;9.11;100.00;162946.81;5012084;28;20457;-58
2022/08/06 00:24:13;;;;;;;5.25;3.10;;;;;;;9.06;100.00;162933.28;5010786;28;20025;-58
2022/08/06 00:26:39;;;;;;;5.10;3.55;;;;;;;9.08;100.00;162938.69;5016763;28;20079;-57
2022/08/06 00:29:05;;;;;;;8.57;3.15;;;;;;;9.10;100.00;162944.09;5029918;28;20033;-58
2022/08/06 00:31:30;;;;;;;4.93;3.55;;;;;;;9.10;100.00;162944.09;5031179;28;20109;-58
2022/08/06 00:33:55;;;;;;;4.43;3.10;;;;;;;9.10;100.00;162944.09;5030198;28;20059;-58
2022/08/06 00:36:26;;;;;;;5.72;3.38;;;;;;;9.10;100.00;162944.09;5029863;28;20056;-58
2022/08/06 00:38:52;;;;;;;9.82;4.07;;;;;;;9.10;100.00;162944.09;5028892;28;20026;-58
2022/08/06 00:41:19;;;;;;;7.60;3.38;;;;;;;9.09;100.00;162941.41;5009606;28;20413;-58
2022/08/06 00:43:45;;;;;;;5.35;3.53;;;;;;;9.09;100.00;162941.41;5023467;28;20064;-59
2022/08/06 00:46:11;;;;;;;4.15;3.63;;;;;;;9.06;100.00;162933.28;5029925;28;20041;-58
2022/08/06 00:48:37;;;;;;;4.10;2.80;;;;;;;9.04;100.00;162929.25;5029907;28;20037;-58
2022/08/06 00:51:02;;;;;;;5.35;3.60;;;;;;;9.04;100.00;162927.94;5028421;28;20033;-58
2022/08/06 00:53:28;;;;;;;9.20;3.05;;;;;;;8.99;100.00;162914.41;5029863;28;20053;-58
2022/08/06 00:55:53;;;;;;;2.50;2.35;;;;;;;8.94;100.00;162900.94;5029375;28;20489;-58
2022/08/06 00:58:19;;;;;;;3.33;3.03;;;;;;;8.89;100.00;162890.19;5031062;28;20052;-58
2022/08/06 01:00:44;;;;;;;3.75;2.70;;;;;;;8.86;100.00;162882.06;5028960;28;20409;-58
2022/08/06 01:03:10;;;;;;;3.90;3.47;;;;;;;8.82;100.00;162869.94;5030702;28;20029;-58
2022/08/06 01:05:36;;;;;;;4.93;4.07;;;;;;;8.82;100.00;162869.94;5017734;28;20137;-58
2022/08/06 01:08:01;;;;;;;7.30;3.85;;;;;;;8.81;100.00;162868.59;5011212;28;20106;-58
2022/08/06 01:10:27;;;;;;;4.30;3.95;;;;;;;8.81;100.00;162868.59;5009203;28;20460;-58
2022/08/06 01:12:52;;;;;;;4.65;4.15;;;;;;;8.81;100.00;162868.59;5015353;28;20021;-58
2022/08/06 01:15:18;;;;;;;4.10;3.38;;;;;;;8.82;100.00;162869.94;5020234;28;20096;-59
2022/08/06 01:18:00;;;;;;;4.13;3.72;;;;;;;8.80;100.00;162865.91;5010946;28;20073;-58
2022/08/06 01:20:29;;;;;;;4.82;3.95;;;;;;;8.79;100.00;162861.81;5009616;28;20387;-60
2022/08/06 01:23:19;;;;;;;10.10;3.85;;;;;;;8.77;100.00;162856.47;5015879;28;20025;-58
2022/08/06 01:26:05;;;;;;;5.22;3.80;;;;;;;8.73;100.00;162848.34;5024699;28;20051;-59
2022/08/06 01:28:56;;;;;;;6.38;4.25;;;;;;;8.70;100.00;162838.91;5027378;28;20533;-58
2022/08/06 01:31:28;;;;;;;5.75;3.83;;;;;;;8.67;100.00;162830.84;5012916;28;20046;-58
2022/08/06 01:33:59;;;;;;;10.25;6.07;;;;;;;8.67;100.00;162832.19;5011168;28;20030;-58
2022/08/06 01:36:35;;;;;;;6.53;4.80;;;;;;;8.69;100.00;162836.22;5010280;28;20052;-58
2022/08/06 01:39:01;;;;;;;7.57;4.60;;;;;;;8.62;100.00;162817.34;5010920;28;20088;-58
2022/08/06 01:41:39;;;;;;;7.15;4.65;;;;;;;8.67;100.00;162830.84;5009483;28;20056;-58
2022/08/06 01:44:11;;;;;;;8.85;4.30;;;;;;;8.63;100.00;162821.41;5011016;28;20448;-58
2022/08/06 01:46:40;;;;;;;5.28;4.65;;;;;;;8.67;100.00;162832.19;5011752;28;20034;-58
2022/08/06 01:49:09;;;;;;;2.90;2.60;;;;;;;8.65;100.00;162825.44;5014461;28;20022;-58
2022/08/06 01:51:36;;;;;;;8.52;2.78;;;;;;;8.62;100.00;162817.34;5014003;28;20042;-58
2022/08/06 01:54:03;;;;;;;6.07;3.95;;;;;;;8.56;100.00;162803.88;5027855;28;20112;-58
2022/08/06 01:56:31;;;;;;;6.70;4.00;;;;;;;8.51;100.00;162789.03;5031543;28;20038;-58
2022/08/06 01:58:59;;;;;;;5.50;4.00;;;;;;;8.43;100.00;162768.78;5034369;28;20056;-58
2022/08/06 02:01:26;;;;;;;6.43;4.40;;;;;;;8.39;100.00;162759.34;5032416;28;20037;-58
2022/08/06 02:03:55;;;;;;;6.65;6.05;;;;;;;8.40;100.00;162760.69;5032379;28;20075;-58
2022/08/06 02:06:25;;;;;;;6.00;4.43;;;;;;;8.36;100.00;162749.91;5012815;28;20066;-58
2022/08/06 02:08:52;;;;;;;14.20;6.85;;;;;;;8.36;100.00;162751.25;5014086;28;20061;-58
2022/08/06 02:11:18;;;;;;;6.70;4.00;;;;;;;8.34;100.00;162744.50;5012584;28;20057;-58
2022/08/06 02:13:45;;;;;;;5.45;3.65;;;;;;;8.33;100.00;162741.81;5028138;28;20025;-58
2022/08/06 02:16:13;;;;;;;54.13;4.50;;;;;;;8.25;100.00;162721.63;5032299;28;20522;-58
2022/08/06 02:18:43;;;;;;;29.17;3.67;;;;;;;8.23;100.00;162717.53;5034140;28;20033;-58
2022/08/06 02:21:12;;;;;;;4.60;3.90;;;;;;;8.18;100.00;162704.06;5022053;28;20041;-58
2022/08/06 02:23:39;;;;;;;5.07;3.78;;;;;;;8.06;100.00;162671.75;5022065;28;20025;-58
2022/08/06 02:26:05;;;;;;;3.67;3.38;;;;;;;8.08;100.00;162677.09;5013412;28;20038;-59
2022/08/06 02:28:34;;;;;;;6.05;3.90;;;;;;;8.08;100.00;162677.09;5013827;28;20053;-59
2022/08/06 02:31:00;;;;;;;7.03;4.53;;;;;;;8.12;100.00;162687.91;5011963;28;20057;-58
2022/08/06 02:33:26;;;;;;;5.80;4.68;;;;;;;8.15;100.00;162696.00;5013805;28;20030;-58
2022/08/06 02:36:02;;;;;;;5.38;4.85;;;;;;;8.17;100.00;162701.38;5012609;28;20042;-58
2022/08/06 02:38:36;;;;;;;4.50;4.18;;;;;;;8.18;100.00;162702.75;5013494;28;20469;-58
2022/08/06 02:41:16;;;;;;;17.13;4.00;;;;;;;8.13;100.00;162689.22;5012468;28;20069;-59
2022/08/06 02:43:51;;;;;;;5.20;4.20;;;;;;;8.07;100.00;162674.44;5016235;28;20093;-58
2022/08/06 02:46:25;;;;;;;4.82;4.43;;;;;;;8.02;100.00;162660.94;5028878;28;20497;-59
2022/08/06 02:48:59;;;;;;;8.63;5.22;;;;;;;7.99;100.00;162652.88;5030668;28;20064;-59
2022/08/06 02:51:31;;;;;;;6.70;4.70;;;;;;;7.98;100.00;162650.19;5018559;28;20071;-59
2022/08/06 02:54:10;;;;;;;10.98;5.65;;;;;;;7.98;100.00;162650.19;5033032;28;20083;-59
2022/08/06 02:56:40;;;;;;;6.15;4.80;;;;;;;7.97;100.00;162647.47;5030721;28;20084;-59
2022/08/06 02:59:08;;;;;;;7.10;5.07;;;;;;;7.93;100.00;162639.38;5017694;28;20057;-61
2022/08/06 03:01:42;;;;;;;31.63;6.18;;;;;;;7.91;100.00;162634.00;5011516;28;20033;-59
2022/08/06 03:04:09;;;;;;;2.90;2.75;;;;;;;7.79;100.00;162601.66;5025484;28;20108;-59
2022/08/06 03:06:37;;;;;;;5.55;4.70;;;;;;;7.74;100.00;162588.19;5031523;28;20045;-59
2022/08/06 03:09:06;;;;;;;7.38;3.72;;;;;;;7.78;100.00;162599.00;5029161;28;20033;-59
2022/08/06 03:11:34;;;;;;;8.13;3.83;;;;;;;7.74;100.00;162589.50;5011508;28;20061;-58
2022/08/06 03:14:04;;;;;;;6.73;6.10;;;;;;;7.78;100.00;162600.31;5013312;28;20174;-58
2022/08/06 03:16:34;;;;;;;9.15;5.88;;;;;;;7.83;100.00;162612.44;5011128;28;20457;-58
2022/08/06 03:19:01;;;;;;;9.52;4.70;;;;;;;7.86;100.00;162619.19;5016459;28;20035;-58
2022/08/06 03:21:29;;;;;;;4.65;4.35;;;;;;;7.83;100.00;162612.44;5031300;28;20513;-59
2022/08/06 03:23:55;;;;;;;5.65;5.05;;;;;;;7.80;100.00;162604.34;5019088;28;20061;-58
2022/08/06 03:26:21;;;;;;;5.57;4.00;;;;;;;7.75;100.00;162592.22;5011283;28;20041;-59
2022/08/06 03:28:47;;;;;;;11.30;7.03;;;;;;;7.73;100.00;162585.47;5012886;28;20093;-59
2022/08/06 03:31:13;;;;;;;7.70;4.15;;;;;;;7.69;100.00;162574.72;5010906;28;20042;-58
2022/08/06 03:33:38;;;;;;;5.43;4.95;;;;;;;7.67;100.00;162569.31;5014590;28;20084;-58
2022/08/06 03:36:05;;;;;;;5.28;4.78;;;;;;;7.57;100.00;162545.06;5025020;28;20038;-59
2022/08/06 03:38:37;;;;;;;32.28;4.25;;;;;;;7.61;100.00;162555.88;5015896;28;20041;-58
2022/08/06 03:41:03;;;;;;;4.10;3.10;;;;;;;7.57;100.00;162545.06;5020531;28;20034;-58
2022/08/06 03:43:29;;;;;;;4.55;2.88;;;;;;;7.49;100.00;162523.50;5021172;28;20087;-58
2022/08/06 03:46:00;;;;;;;8.95;5.85;;;;;;;7.45;100.00;162514.06;5020117;28;20516;-58
2022/08/06 03:48:31;;;;;;;6.85;4.72;;;;;;;7.46;100.00;162516.78;5019918;28;20045;-58
2022/08/06 03:51:01;;;;;;;4.15;3.75;;;;;;;7.43;100.00;162507.34;5016272;28;20169;-58
2022/08/06 03:53:27;;;;;;;5.68;3.65;;;;;;;7.41;100.00;162502.00;5021023;28;20033;-57
2022/08/06 03:55:55;;;;;;;6.15;5.07;;;;;;;7.39;100.00;162496.59;5021295;28;20401;-58
2022/08/06 03:58:23;;;;;;;4.40;4.00;;;;;;;7.37;100.00;162491.19;5019750;28;20040;-57
2022/08/06 04:00:56;;;;;;;5.88;4.50;;;;;;;7.36;100.00;162488.50;5017702;28;20523;-57
2022/08/06 04:03:22;;;;;;;11.25;5.78;;;;;;;7.39;100.00;162496.59;5019822;28;20026;-58
2022/08/06 04:05:48;;;;;;;6.60;4.93;;;;;;;7.41;100.00;162502.00;5019794;28;20497;-59
2022/08/06 04:08:15;;;;;;;9.45;4.18;;;;;;;7.41;100.00;162502.00;5021809;28;20013;-59
2022/08/06 04:10:43;;;;;;;16.92;6.13;;;;;;;7.43;100.00;162507.34;5010625;28;20042;-59
2022/08/06 04:13:11;;;;;;;5.22;4.80;;;;;;;7.45;100.00;162512.75;5012397;28;20093;-59
2022/08/06 04:15:38;;;;;;;8.18;5.35;;;;;;;7.46;100.00;162516.78;5017209;28;20052;-59
2022/08/06 04:18:07;;;;;;;8.27;5.57;;;;;;;7.48;100.00;162520.84;5018103;28;20535;-58
2022/08/06 04:20:34;;;;;;;16.65;6.55;;;;;;;7.50;100.00;162526.19;5010318;28;20056;-57
2022/08/06 04:22:59;;;;;;;8.57;6.30;;;;;;;7.52;100.00;162530.28;5012055;28;20056;-58
2022/08/06 04:25:28;;;;;;;11.73;5.43;;;;;;;7.46;100.00;162516.78;5023257;28;20452;-59
2022/08/06 04:27:54;;;;;;;22.88;5.05;;;;;;;7.45;100.00;162512.75;5031303;28;20045;-58
2022/08/06 04:30:22;;;;;;;5.78;3.53;;;;;;;7.38;100.00;162493.91;5028270;28;20061;-60
2022/08/06 04:32:47;;;;;;;17.43;6.13;;;;;;;7.29;100.00;162472.34;5017958;28;20104;-59
2022/08/06 04:35:13;;;;;;;4.82;4.45;;;;;;;7.37;100.00;162491.19;5012068;28;21615;-58
2022/08/06 04:37:39;;;;;;;12.00;6.78;;;;;;;7.43;100.00;162507.34;5022929;28;20048;-57
2022/08/06 04:40:07;;;;;;;7.38;5.82;;;;;;;7.47;100.00;162518.16;5015647;28;20034;-58
2022/08/06 04:42:32;;;;;;;10.07;6.10;;;;;;;7.53;100.00;162534.31;5025610;28;20053;-58
2022/08/06 04:44:58;;;;;;;8.18;5.60;;;;;;;7.55;100.00;162539.72;5024194;28;20065;-58
2022/08/06 04:47:24;;;;;;;6.80;6.20;;;;;;;7.57;100.00;162545.06;5023274;28;20025;-58
2022/08/06 04:49:49;;;;;;;6.32;5.40;;;;;;;7.58;100.00;162547.75;5016490;28;20627;-58
2022/08/06 04:52:22;;;;;;;8.13;5.63;;;;;;;7.62;100.00;162557.19;5022157;28;20025;-58
2022/08/06 04:54:48;;;;;;;7.55;5.50;;;;;;;7.65;100.00;162563.94;5027739;28;20165;-58
2022/08/06 04:57:13;;;;;;;8.95;6.50;;;;;;;7.71;100.00;162580.09;5028451;28;20037;-58
2022/08/06 04:59:39;;;;;;;9.23;5.90;;;;;;;7.77;100.00;162597.63;5028809;28;20034;-58
2022/08/06 05:02:04;;;;;;;10.73;5.78;;;;;;;7.82;100.00;162609.75;5031285;28;20017;-58
2022/08/06 05:04:31;;;;;;;10.95;6.25;;;;;;;7.91;100.00;162634.00;5022415;28;20099;-58
2022/08/06 05:07:20;;;;;;;9.63;6.72;;;;;;;8.01;100.00;162659.63;5030880;28;20018;-59
2022/08/06 05:09:46;;;;;;;7.45;6.75;;;;;;;8.12;100.00;161835.25;5020284;28;20052;-58
2022/08/06 05:12:26;;;;;;;6.93;6.28;;;;;;;8.25;100.00;158870.06;5016535;28;20030;-57
2022/08/06 05:15:17;;;;;;;8.48;7.63;;;;;;;8.44;100.00;155031.25;5012394;28;20045;-57
2022/08/06 05:17:49;;;;;;;11.52;10.10;;;;;;;8.59;100.00;151551.53;5017466;28;20064;-58
2022/08/06 05:20:19;;;;;;;11.85;9.13;;;;;;;8.73;100.00;148424.31;5020514;28;20037;-57
2022/08/06 05:22:49;;;;;;;10.93;8.95;;;;;;;8.90;100.00;145303.94;5016178;28;20033;-58
2022/08/06 05:25:15;;;;;;;13.60;9.38;;;;;;;9.04;100.00;142879.03;5023910;28;20037;-58
2022/08/06 05:27:41;;;;;;;11.32;8.88;;;;;;;9.16;100.00;140450.97;5023799;28;20460;-58
2022/08/06 05:30:08;;;;;;;12.35;9.73;;;;;;;9.29;100.00;138724.72;5012682;28;20403;-58
2022/08/06 05:32:47;;;;;;;11.45;10.18;;;;;;;9.42;100.00;137000.78;5015767;28;20040;-58
2022/08/06 05:35:13;;;;;;;9.50;8.45;;;;;;;9.56;100.00;135627.47;5014771;28;20807;-57
2022/08/06 05:37:39;;;;;;;15.45;9.13;;;;;;;9.62;100.00;133887.97;5019209;28;20104;-58
2022/08/06 05:40:05;;;;;;;13.82;9.38;;;;;;;9.86;100.00;132185.81;5022001;28;20038;-58
2022/08/06 05:42:31;;;;;;;7.75;7.10;;;;;;;9.98;100.00;130459.47;5021993;28;20022;-57
2022/08/06 05:44:56;;;;;;;9.52;7.93;;;;;;;10.11;100.00;129085.63;5020218;28;20092;-57
2022/08/06 05:47:24;;;;;;;8.90;8.10;;;;;;;10.26;100.00;127713.72;5024606;28;20083;-59
2022/08/06 05:50:00;;;;;;;8.80;7.25;;;;;;;10.40;100.00;126691.97;5017751;28;20045;-58
2022/08/06 05:52:34;;;;;;;9.50;7.60;;;;;;;10.56;100.00;126023.44;5014561;28;20037;-58
2022/08/06 05:55:11;;;;;;;12.00;7.20;;;;;;;10.70;100.00;125350.50;5012777;28;20049;-58
2022/08/06 05:58:11;;;;;;;10.48;6.60;;;;;;;10.85;100.00;125028.78;5013119;28;20026;-59
2022/08/06 06:00:38;;;;;;;7.53;6.82;;;;;;;10.97;100.00;125053.41;5002677;28;20050;-56
2022/08/06 06:03:07;;;;;;;9.07;7.00;;;;;;;11.15;100.00;125438.81;5028445;28;20018;-55
2022/08/06 06:05:35;;;;;;;6.25;5.75;;;;;;;11.31;100.00;125822.41;5019341;28;20038;-57
2022/08/06 06:08:01;;;;;;;10.02;6.22;;;;;;;11.45;100.00;126901.81;5031668;28;20029;-57
2022/08/06 06:10:27;;;;;;;7.35;6.25;;;;;;;11.59;100.00;127985.13;5030042;28;20096;-57
2022/08/06 06:12:54;;;;;;;8.90;7.15;;;;;;;11.75;100.00;129773.91;5030987;28;20503;-56
2022/08/06 06:15:19;;;;;;;9.13;5.90;;;;;;;11.92;100.00;131917.06;5013268;28;20060;-57
2022/08/06 06:18:23;;;;;;;10.73;6.57;;;;;;;12.08;100.00;135468.06;5031563;28;20025;-57
2022/08/06 06:21:05;;;;;;;5.32;4.82;;;;;;;12.21;100.00;142897.25;4990121;28;20073;-57
2022/08/06 06:23:49;;;;;;;5.13;4.70;;;;;;;12.41;100.00;154247.66;5026083;28;20436;-58
2022/08/06 06:26:39;;;;;;;7.57;5.78;;;;;;;12.55;100.00;163502.38;5024532;28;20069;-57
2022/08/06 06:29:13;;;;;;;5.45;4.90;;;;;;;12.77;100.00;163902.75;5015551;28;20412;-56
2022/08/06 06:31:55;;;;;;;8.35;4.03;;;;;;;12.94;100.00;163948.69;5027308;28;20025;-57
2022/08/06 06:34:31;;;;;;;5.47;4.57;;;;;;;13.13;100.00;163234.72;5025110;28;20034;-57
2022/08/06 06:37:18;;;;;;;4.15;3.75;;;;;;;13.35;100.00;163170.47;5013141;28;20033;-57
2022/08/06 06:40:16;;;;;;;8.80;4.15;;;;;;;13.49;100.00;164093.41;5021409;28;20303;-57
2022/08/06 06:43:11;;;;;;;8.85;4.38;;;;;;;13.69;100.00;164144.81;5013126;28;20030;-57
2022/08/06 06:45:45;;;;;;;5.43;3.70;;;;;;;13.91;100.00;164202.94;4994460;28;20041;-57
2022/08/06 06:48:26;;;;;;;7.88;3.58;;;;;;;14.11;100.00;164254.38;5026773;28;20029;-57
2022/08/06 06:50:57;;;;;;;10.45;4.72;;;;;;;14.20;100.00;164278.69;5031159;28;20118;-57
2022/08/06 06:53:28;;;;;;;4.28;3.33;;;;;;;14.55;100.00;164370.72;5032889;28;20586;-56
2022/08/06 06:55:57;;;;;;;5.70;4.03;;;;;;;14.78;100.00;164430.25;5031421;28;20045;-57
2022/08/06 06:58:35;;;;;;;4.25;2.65;;;;;;;15.35;100.00;164579.16;5032355;28;20488;-57
2022/08/06 07:01:03;;;;;;;3.75;2.53;;;;;;;15.98;100.00;164744.38;5031568;28;20033;-57
2022/08/06 07:03:29;;;;;;;6.70;2.25;;;;;;;16.63;100.00;164915.06;5030939;28;20029;-57
2022/08/06 07:05:58;;;;;;;4.43;2.78;;;;;;;17.31;100.00;165093.97;5031120;28;20042;-57
2022/08/06 07:08:26;;;;;;;4.45;2.25;;;;;;;17.72;100.00;165202.38;5027847;28;20637;-57
2022/08/06 07:10:52;;;;;;;4.50;3.03;;;;;;;18.18;100.00;165323.06;5011321;28;20049;-57
2022/08/06 07:13:19;;;;;;;6.22;1.80;;;;;;;18.69;100.00;165457.31;5012226;28;20018;-57
2022/08/06 07:15:45;;;;;;;3.22;1.65;;;;;;;19.08;100.00;165557.75;5021091;28;20073;-56
2022/08/06 07:18:11;;;;;;;2.58;1.55;;;;;;;19.35;100.00;165629.66;5020857;28;20045;-57
2022/08/06 07:20:38;;;;;;;1.60;1.50;;;;;;;19.20;100.00;165590.28;5025475;28;20415;-57
2022/08/06 07:23:06;;;;;;;1.95;1.20;;;;;;;19.00;100.00;165538.75;5029100;28;20034;-57
2022/08/06 07:25:35;;;;;;;;;;;;;;;18.89;100.00;165508.84;5011907;28;20404;-57
2022/08/06 07:28:02;;;;;;;3.95;1.00;;;;;;;18.57;100.00;165424.78;5016096;28;19921;-57
2022/08/06 07:30:29;;;;;;;3.35;1.65;;;;;;;18.23;100.00;165335.28;5030089;28;20037;-56
2022/08/06 07:32:55;;;;;;;1.98;1.40;;;;;;;18.00;100.00;165275.59;5032041;28;20029;-57
2022/08/06 07:35:20;;;;;;;1.40;1.30;;;;;;;17.87;100.00;165240.31;5029281;28;20050;-57
2022/08/06 07:37:51;;;;;;;3.50;1.60;;;;;;;17.73;100.00;165205.09;5032429;28;20029;-57
2022/08/06 07:40:28;;;;;;;1.88;1.00;;;;;;;17.60;100.00;165169.84;5030227;28;20040;-57
2022/08/06 07:42:58;;;;;;;2.83;1.35;;;;;;;17.60;100.00;165169.84;5030810;28;20025;-57
2022/08/06 07:45:27;;;;;;;1.95;0.80;;;;;;;17.68;100.00;165191.56;5030516;28;20514;-57
2022/08/06 07:47:56;;;;;;;3.90;1.35;;;;;;;17.67;100.00;165188.84;5031491;28;20024;-57
2022/08/06 07:50:22;;;;;;;;;;;;;;;17.61;100.00;165172.53;5030044;28;20049;-57
2022/08/06 07:52:48;;;;;;;3.10;1.02;;;;;;;17.62;100.00;165173.91;5031290;28;19920;-57
2022/08/06 07:55:15;;;;;;;1.63;0.70;;;;;;;17.74;100.00;165207.81;5030532;28;20029;-57
2022/08/06 07:57:42;;;;;;;1.00;0.80;;;;;;;17.80;100.00;165221.34;5026616;28;20029;-57
2022/08/06 08:00:10;;;;;;;3.30;0.82;;;;;;;17.83;100.00;165229.50;5013891;28;20045;-57
2022/08/06 08:02:36;;;;;;;6.40;1.02;;;;;;;17.83;100.00;165229.50;5029712;28;20105;-57
2022/08/06 08:07:46;;;;;;;2.85;0.98;;;;;;;18.18;100.00;165323.06;5026851;28;20405;-57
2022/08/06 08:10:12;;;;;;;3.20;0.80;;;;;;;18.32;100.00;165359.69;5022802;28;20045;-57
2022/08/06 08:12:39;;;;;;;2.25;0.98;;;;;;;18.61;100.00;165435.63;5027495;28;20033;-57
2022/08/06 08:15:05;;;;;;;2.33;0.80;;;;;;;18.61;100.00;165435.63;5022024;28;20061;-56
2022/08/06 08:17:31;;;;;;;2.90;0.70;;;;;;;18.83;100.00;165492.56;5014220;28;20078;-62
2022/08/06 08:20:07;;;;;;;1.42;1.08;;;;;;;18.93;100.00;165519.78;5016082;28;20034;-57
2022/08/06 08:22:34;;;;;;;1.50;0.90;;;;;;;19.35;100.00;165629.66;5019466;28;20026;-57
2022/08/06 08:24:59;;;;;;;3.03;1.00;;;;;;;19.50;100.00;165670.38;5024595;28;20099;-57
2022/08/06 08:27:24;;;;;;;2.75;0.90;;;;;;;20.06;100.00;165815.59;5015341;28;20438;-57
2022/08/06 08:29:51;;;;;;;3.25;0.88;;;;;;;20.04;100.00;165811.50;5020182;28;20049;-57
2022/08/06 08:32:17;;;;;;;2.05;0.93;;;;;;;19.90;100.00;165773.50;5025446;28;20026;-57
2022/08/06 08:34:43;;;;;;;2.88;0.90;;;;;;;19.49;100.00;165666.25;5027984;28;20037;-57
2022/08/06 08:37:08;;;;;;;0.60;0.57;;;;;;;19.11;100.00;165565.84;5029659;28;20021;-57
2022/08/06 08:39:33;;;;;;;4.80;1.98;;;;;;;18.57;100.00;165424.78;5028825;28;20408;-57
2022/08/06 08:42:23;;;;;;;1.40;0.80;;;;;;;18.11;100.00;165304.06;5030583;28;20021;-57
2022/08/06 08:44:49;;;;;;;1.25;1.05;;;;;;;17.64;100.00;165180.69;5029295;28;20464;-57
2022/08/06 08:47:17;;;;;;;4.85;0.80;;;;;;;17.36;100.00;165106.13;5029837;28;20052;-57
2022/08/06 08:49:50;;;;;;;3.67;1.27;;;;;;;17.19;100.00;165061.41;5028935;28;20163;-57
2022/08/06 08:52:25;;;;;;;2.88;0.98;;;;;;;17.26;100.00;165080.38;5030352;28;20120;-57
2022/08/06 08:54:53;;;;;;;2.70;1.10;;;;;;;17.65;100.00;165183.41;5011215;28;20600;-57
2022/08/06 08:57:20;;;;;;;9.75;1.30;;;;;;;18.26;100.00;165343.44;5010371;28;20160;-57
2022/08/06 08:59:46;;;;;;;1.85;0.93;;;;;;;18.69;100.00;165457.31;5020533;28;20079;-57
2022/08/06 09:02:13;;;;;;;1.95;0.88;;;;;;;19.10;100.00;165563.19;5017758;28;20551;-57
2022/08/06 09:04:39;;;;;;;3.20;1.60;;;;;;;19.48;100.00;165663.53;5008769;28;20068;-57
2022/08/06 09:07:07;;;;;;;5.55;2.30;;;;;;;20.25;100.00;165867.16;5024380;28;20117;-57
2022/08/06 09:09:34;;;;;;;2.17;0.93;;;;;;;-146.58;100.00;69501.63;5020817;28;20068;-57
2022/08/06 09:12:00;;;;;;;3.38;1.50;;;;;;;-146.58;100.00;69501.63;5012180;28;20036;-57
2022/08/06 09:14:25;;;;;;;2.63;1.10;;;;;;;-146.58;100.00;69501.63;5012573;28;20656;-58
2022/08/06 09:16:50;;;;;;;2.60;0.85;;;;;;;-146.58;100.00;69501.63;5027176;28;20496;-57
2022/08/06 09:19:16;;;;;;;1.42;1.08;;;;;;;20.71;100.00;165986.63;5028272;28;20037;-57
2022/08/06 09:21:42;;;;;;;1.75;0.65;;;;;;;20.44;100.00;165916.00;5029358;28;20149;-57
2022/08/06 09:24:08;;;;;;;1.60;0.75;;;;;;;19.91;100.00;165777.63;5028055;28;20103;-57
2022/08/06 09:26:33;;;;;;;4.32;0.85;;;;;;;20.09;100.00;165823.72;5029670;28;20543;-57
2022/08/06 09:28:59;;;;;;;3.80;0.90;;;;;;;20.88;100.00;166032.84;5030376;28;20049;-57
2022/08/06 09:31:24;;;;;;;7.25;3.05;;;;;;;21.33;100.00;166150.97;5027693;28;20048;-57
2022/08/06 09:34:06;;;;;;;2.92;0.90;;;;;;;22.00;100.00;166326.28;5029329;28;20029;-57
2022/08/06 09:36:42;;;;;;;1.80;0.93;;;;;;;22.09;100.00;166350.69;5018154;28;20048;-57
2022/08/06 09:39:08;;;;;;;1.23;0.68;;;;;;;22.27;100.00;166396.91;5022461;28;20567;-57
2022/08/06 09:41:44;;;;;;;1.02;0.80;;;;;;;22.35;100.00;166419.97;5029817;28;20043;-57
2022/08/06 09:44:11;;;;;;;1.42;1.33;;;;;;;22.55;100.00;166470.31;5028535;28;20048;-57
2022/08/06 09:46:41;;;;;;;2.30;1.00;;;;;;;22.01;100.00;166330.31;5026909;28;20029;-57
2022/08/06 09:49:08;;;;;;;2.50;0.80;;;;;;;21.17;100.00;166108.91;5018356;28;20480;-57
2022/08/06 09:51:34;;;;;;;0.85;0.73;;;;;;;21.53;100.00;166203.94;5029770;28;20380;-57
2022/08/06 09:54:01;;;;;;;3.28;0.80;;;;;;;21.95;100.00;166312.66;5019916;28;20030;-57
2022/08/06 09:56:27;;;;;;;2.63;1.05;;;;;;;22.13;100.00;166360.19;5017465;28;20049;-57
2022/08/06 09:59:01;;;;;;;2.10;0.80;;;;;;;22.26;100.00;166394.16;5010821;28;20100;-56
2022/08/06 10:01:27;;;;;;;4.45;1.63;;;;;;;22.69;100.00;166507.03;5022714;28;20073;-57
2022/08/06 10:03:55;;;;;;;0.98;0.93;;;;;;;22.89;100.00;166560.03;5022045;28;20101;-57
2022/08/06 10:06:21;;;;;;;2.13;0.70;;;;;;;22.69;100.00;166508.34;5010636;28;20097;-57
2022/08/06 10:08:48;;;;;;;6.07;0.98;;;;;;;22.59;100.00;166481.22;5025520;28;20093;-57
2022/08/06 10:11:14;;;;;;;1.80;1.27;;;;;;;22.93;100.00;166570.88;5015985;28;20042;-57
2022/08/06 10:13:47;;;;;;;3.83;2.05;;;;;;;23.03;100.00;166596.69;5014619;28;20088;-56
2022/08/06 10:16:26;;;;;;;2.42;1.10;;;;;;;22.31;100.00;166407.75;5030147;28;20034;-57
2022/08/06 10:18:52;;;;;;;1.60;1.27;;;;;;;21.82;100.00;166280.06;5018544;28;20084;-57
2022/08/06 10:21:22;;;;;;;3.67;1.17;;;;;;;21.93;100.00;166307.25;5030987;28;20034;-57
2022/08/06 10:23:51;;;;;;;5.57;1.30;;;;;;;21.69;100.00;166244.75;5032727;28;20025;-57
2022/08/06 10:26:19;;;;;;;1.75;0.63;;;;;;;21.65;100.00;166233.84;5031999;28;20497;-57
2022/08/06 10:28:46;;;;;;;4.50;1.17;;;;;;;21.73;100.00;166255.59;5033455;28;20143;-57
2022/08/06 10:31:13;;;;;;;4.68;1.17;;;;;;;21.45;100.00;166182.22;5032323;28;20041;-57
2022/08/06 10:33:51;;;;;;;0.73;0.70;;;;;;;21.14;100.00;166100.72;5025413;28;20485;-57
2022/08/06 10:36:22;;;;;;;1.95;1.08;;;;;;;21.77;100.00;166266.50;5012581;28;20046;-57
2022/08/06 10:38:50;;;;;;;5.25;1.13;;;;;;;21.80;100.00;166274.63;5021758;28;20030;-57
2022/08/06 10:41:17;;;;;;;1.33;0.60;;;;;;;22.07;100.00;166345.28;5019629;28;20116;-57
2022/08/06 10:43:43;;;;;;;1.33;0.77;;;;;;;22.56;100.00;166473.03;5013954;28;20030;-57
2022/08/06 10:46:14;;;;;;;2.45;0.93;;;;;;;22.73;100.00;166519.25;5012440;28;20064;-57
2022/08/06 10:48:41;;;;;;;1.85;0.75;;;;;;;23.06;100.00;166606.22;5013874;28;20060;-57
2022/08/06 10:51:07;;;;;;;1.35;0.60;;;;;;;22.94;100.00;166573.63;5025502;28;20064;-57
2022/08/06 10:53:35;;;;;;;3.35;0.98;;;;;;;22.55;100.00;166470.31;5013612;28;20108;-57
2022/08/06 10:56:03;;;;;;;0.60;0.60;;;;;;;22.05;100.00;166338.44;5012138;28;20045;-57
2022/08/06 10:58:32;;;;;;;4.88;1.23;;;;;;;22.23;100.00;166386.06;5013134;28;20032;-57
2022/08/06 11:01:00;;;;;;;3.88;1.00;;;;;;;22.05;100.00;166339.84;5011829;28;20468;-57
2022/08/06 11:03:58;;;;;;;0.65;0.65;;;;;;;22.11;100.00;166354.78;5012765;28;20506;-57
2022/08/06 11:06:44;;;;;;;6.55;0.90;;;;;;;21.74;100.00;166258.31;5021040;28;20050;-57
2022/08/06 11:09:40;;;;;;;1.08;0.60;;;;;;;22.37;100.00;166422.72;5032831;28;20029;-57
2022/08/06 11:12:29;;;;;;;1.25;0.82;;;;;;;22.95;89.78;166576.34;5018789;28;20068;-57
2022/08/06 11:14:55;;;;;;;3.45;0.65;;;;;;;22.91;88.11;166566.81;5012118;28;20022;-57
2022/08/06 11:17:20;;;;;;;4.50;0.75;;;;;;;22.90;96.21;166562.72;5012269;28;20075;-57
2022/08/06 11:19:48;;;;;;;1.00;0.70;;;;;;;22.71;93.83;166513.81;5025392;28;20073;-57
2022/08/06 11:22:51;;;;;;;5.97;0.70;;;;;;;23.40;93.32;166696.00;5011725;28;20176;-57
2022/08/06 11:25:17;;;;;;;4.43;0.80;;;;;;;23.40;93.32;166696.00;4950177;28;20042;-57
2022/08/06 11:27:52;;;;;;;5.82;1.15;;;;;;;23.66;95.90;166763.97;4952263;29;20059;-57
2022/08/06 11:30:19;;;;;;;13.63;1.05;;;;;;;23.36;89.16;166685.13;4991869;28;20100;-57
2022/08/06 11:32:46;;;;;;;2.87;0.90;;;;;;;23.66;85.49;166762.63;5021315;28;20021;-57
2022/08/06 11:35:33;;;;;;;2.03;0.63;;;;;;;23.95;83.08;166840.16;5030296;28;20432;-57
2022/08/06 11:38:09;;;;;;;0.90;0.50;;;;;;;23.74;79.45;166784.38;5026751;28;20034;-57